Fort Myers, FL (33965)

12:53 AM EDT on October 21, 2014 (GMT -0400)
Orangewood | Change Station
CLOSE
Current Station
Personal Weather Station
Location: Fort Myers, FL
Elevation: 20 ft
Nearby Weather Stations

Elev 20 ft 26.60 °N, 81.88 °W | Updated 29 seconds ago

Clear
Clear
76.8 °F
Feels Like 78 °F
N
2.0
Wind Variable Wind from South
Gusts 4.0 mph

Today
High -- | Low -- °F
--% Chance of Precip.
Yesterday
High -- | Low -- °F
Precip. -- in
7:30 AM 6:53 PM
Waning Crescent, 7% visible
Pressure 29.98 in
Visibility 10.0 miles
Clouds Clear
Heat Index 78 °F
Dew Point 73 °F
Humidity 87%
Rainfall 0.00 in
Snow Depth Not available.
UV 0 out of 12
Pollen 6.00 out of 12
Air Quality Not available.
Flu Activity Local Activity
METAR KFMY 210353Z AUTO 17004KT 10SM CLR 25/21 A2997 RMK AO2 SLP152 T02500211

More Conditions Fewer Conditions

Pressure 29.98 in
Visibility 10.0 miles
Clouds Clear
Heat Index 78 °F
Dew Point 73 °F
Humidity 87%
Rainfall 0.00 in
Snow Depth Not available.
UV 0 out of 12
Pollen 6.00 out of 12
Air Quality Not available.
Flu Activity Local Activity
METAR KFMY 210353Z AUTO 17004KT 10SM CLR 25/21 A2997 RMK AO2 SLP152 T02500211

More Conditions Fewer Conditions

10-Day Weather Forecast

Almanac

Astronomy

Oct. 21, 2014 Rise Set
Actual Time 7:30 AM EDT 6:53 PM EDT
Civil Twilight 7:06 AM EDT 7:17 PM EDT
Nautical Twilight 6:39 AM EDT 7:44 PM EDT
Astronomical Twilight 6:12 AM EDT 8:11 PM EDT
Moon 5:25 AM EDT 5:37 PM EDT
Length of Visible Light 12h 10m
Length of Day
11h 23m
Tomorrow will be 1m 27s shorter.
Waning Crescent, 7% of the Moon is Illuminated
Today
Waning Crescent
Oct 23
New
Oct 30
First Quarter
Nov 6
Full
Nov 14
Last Quarter

Today's Extremes

State Highs State Lows

Community

WunderPhotos

Upload Photos

1,763,610 photos uploaded!

Nearby

Snow Depth

Station Depth Elevation
No new snow has been reported.

Earthquake Activity

City Distance Mag. Time & Date
No recent earthquake activity has been reported nearby.
Minimum magnitude displayed is 2.5.

Coastal Water Temperatures

Place Temperature
Fort Myers, FL 82.9 °F
Naples, FL 84.9 °F

Nearby Weather Stations